Skip Navigation Links
NOAA logo - Click to go to the NOAA homepage
NOAA's National Weather Service
Alaska Aviation Weather Unit
  NWS logo - Click to go to the NWS homepage
Left Navbar Graphic     21 AKDT = 05 GMT

   
NOAA is celebrating 200 years of science, service, and stewardship. Visit the NOAA 200th celebration Web site to learn more.
USA.gov is the U.S. Government's official Web portal to all Federal, state and local government Web resources and services.
Facebook
NWS on Facebook

Important Change Regarding the AAWU Web Presence

 

Over the last several months, the AAWU has been working to navigate its webpages to a nationally supported server. Security, as well as other needs, have necessitated the change.  In the process, we have made an effort to enhance the functionality of our website, as well as some of our products. As of June 27, 2017, aawu.arh.noaa.gov will be discontinued. The new AAWU web address is weather.gov/aawu. It is now live and will run in-parallel with the old site until it is discontinued. Please send any feedback or questions regarding the new webpages to nws.ar.aawu.webauthors@noaa.gov.  Thank you for your patience during this time of transition.
AAWU Home :: Display TAF Add Bookmark
TAF PAYA 260156Z 2602/2624 27010KT P6SM SCT150
      TEMPO 2602/2606 27010G20KT
     FM261200 VRB03KT P6SM FEW005 BKN050
      AMD LTD TO CLD VIS AND WIND=
METAR PAYA 252353Z AUTO 29007KT 250V340 10SM BKN120 16/09 A2997 RMK AO2
     SLP149 T01610094 10172 20144 53004 TSNO=

METAR PAYA 260053Z AUTO 27014G21KT 10SM CLR 16/11 A2997 RMK AO2 SLP149
     T01610106 TSNO=

METAR PAYA 260153Z AUTO 27012KT 10SM CLR 16/11 A2997 RMK AO2 SLP149
     T01560106 TSNO=

METAR PAYA 260253Z AUTO 27011KT 10SM CLR 15/11 A2997 RMK AO2 SLP150
     T01500106 53001 TSNO=

METAR PAYA 260353Z AUTO VRB04KT 10SM CLR 14/10 A2997 RMK AO2 SLP149
     T01440100 TSNO=

METAR PAYA 260453Z AUTO 27007KT 10SM SCT027 13/11 A2997 RMK AO2 SLP149
     T01330106 TSNO=

PAYA 260501Z AUTO 27006KT 10SM BKN028 13/11 A2997=


NOAA's National Weather Service
Alaska Aviation Weather Unit
6930 Sand Lake Road
Anchorage, AK 99502-1845
Disclaimer
Credits
Glossary
Privacy Policy
About Us
Career Opportunities
Contact AAWU Internet Services Site last modified: April, 17th 2012